createdAt,value
2022-08-26T00:01:41.702Z,23.16
2022-08-26T00:04:11.663Z,23.30
2022-08-26T00:06:38.735Z,23.34
2022-08-26T00:09:09.612Z,23.55
2022-08-26T00:11:36.550Z,23.57
2022-08-26T00:14:03.053Z,23.60
2022-08-26T00:16:29.964Z,23.58
2022-08-26T00:19:19.016Z,23.56
2022-08-26T00:22:06.963Z,23.57
2022-08-26T00:24:53.387Z,23.45
2022-08-26T00:27:40.995Z,23.31
2022-08-26T00:30:29.747Z,23.39
2022-08-26T00:33:18.504Z,23.33
2022-08-26T00:35:47.559Z,23.21
2022-08-26T00:38:14.760Z,23.09
2022-08-26T00:40:51.388Z,23.11
2022-08-26T00:43:19.796Z,23.07
2022-08-26T00:45:54.187Z,22.97
2022-08-26T00:48:24.513Z,22.98
2022-08-26T00:50:58.332Z,22.93
2022-08-26T00:53:30.255Z,22.96
2022-08-26T00:56:07.863Z,22.93
2022-08-26T00:58:38.444Z,22.90
2022-08-26T01:01:07.500Z,22.87
2022-08-26T01:03:35.119Z,22.92
2022-08-26T01:06:03.874Z,22.92
2022-08-26T01:08:31.503Z,22.86
2022-08-26T01:11:01.286Z,22.83
2022-08-26T01:13:30.144Z,22.69
2022-08-26T01:16:00.838Z,22.64
2022-08-26T01:18:29.486Z,22.75
2022-08-26T01:21:08.139Z,22.82
2022-08-26T01:23:39.087Z,22.83
2022-08-26T01:26:19.597Z,22.83
2022-08-26T01:28:51.770Z,22.81
2022-08-26T01:31:22.334Z,22.76
2022-08-26T01:34:05.710Z,22.68
2022-08-26T01:36:32.477Z,22.57
2022-08-26T01:38:59.324Z,22.60
2022-08-26T01:41:27.451Z,22.58
2022-08-26T01:43:57.928Z,22.56
2022-08-26T01:46:26.810Z,22.60
2022-08-26T01:48:55.419Z,22.63
2022-08-26T01:51:25.304Z,22.65
2022-08-26T01:53:52.173Z,22.54
2022-08-26T01:56:23.167Z,22.56
2022-08-26T01:58:57.084Z,22.63
2022-08-26T02:01:28.931Z,22.61
2022-08-26T02:04:23.586Z,22.46
2022-08-26T02:06:51.582Z,22.43
2022-08-26T02:09:21.324Z,22.36
2022-08-26T02:11:48.631Z,22.29
2022-08-26T02:14:24.629Z,22.40
2022-08-26T02:16:54.673Z,22.35
2022-08-26T02:19:31.639Z,22.39
2022-08-26T02:22:03.830Z,22.37
2022-08-26T02:24:49.928Z,22.33
2022-08-26T02:27:21.074Z,22.28
2022-08-26T02:29:53.747Z,22.18
2022-08-26T02:32:20.243Z,22.13
2022-08-26T02:34:47.018Z,22.13
2022-08-26T02:37:14.432Z,22.06
2022-08-26T02:39:44.475Z,22.07
2022-08-26T02:42:12.176Z,22.03
2022-08-26T02:44:39.240Z,22.03
2022-08-26T02:47:07.762Z,22.00
2022-08-26T02:49:35.947Z,21.85
2022-08-26T02:52:03.300Z,21.82
2022-08-26T02:54:30.017Z,21.85
2022-08-26T02:56:56.586Z,21.87
2022-08-26T02:59:24.921Z,21.87
2022-08-26T03:01:52.160Z,21.85
2022-08-26T03:04:25.849Z,21.82
2022-08-26T03:06:53.625Z,21.82
2022-08-26T03:09:23.425Z,21.87
2022-08-26T03:11:50.179Z,21.87
2022-08-26T03:14:16.839Z,21.85
2022-08-26T03:16:43.696Z,21.87
2022-08-26T03:19:15.072Z,21.86
2022-08-26T03:21:45.232Z,21.81
2022-08-26T03:24:15.078Z,21.85
2022-08-26T03:26:52.183Z,21.70
2022-08-26T03:29:40.444Z,21.66
2022-08-26T03:32:08.466Z,21.72
2022-08-26T03:34:36.293Z,21.72
2022-08-26T03:37:03.328Z,21.73
2022-08-26T03:39:31.474Z,21.70
2022-08-26T03:41:58.806Z,21.69
2022-08-26T03:44:26.358Z,21.59
2022-08-26T03:46:53.900Z,21.54
2022-08-26T03:49:20.883Z,21.49
2022-08-26T03:51:47.371Z,21.45
2022-08-26T03:54:14.150Z,21.41
2022-08-26T03:56:40.925Z,21.41
2022-08-26T03:59:08.312Z,21.35
2022-08-26T04:01:36.185Z,21.31
2022-08-26T04:04:03.753Z,21.35
2022-08-26T04:06:36.741Z,21.35
2022-08-26T04:09:08.400Z,21.34
2022-08-26T04:11:37.749Z,21.34
2022-08-26T04:14:07.667Z,21.42
2022-08-26T04:16:35.248Z,21.39
2022-08-26T04:19:03.974Z,21.36
2022-08-26T04:21:30.691Z,21.34
2022-08-26T04:23:58.321Z,21.29
2022-08-26T04:26:25.143Z,21.33
2022-08-26T04:28:56.001Z,21.24
2022-08-26T04:31:23.097Z,21.28
2022-08-26T04:33:50.627Z,21.27
2022-08-26T04:36:19.934Z,21.23
2022-08-26T04:38:47.685Z,21.25
2022-08-26T04:41:14.844Z,21.26
2022-08-26T04:43:42.276Z,21.23
2022-08-26T04:46:10.435Z,21.29
2022-08-26T04:48:40.821Z,21.24
2022-08-26T04:51:07.524Z,21.18
2022-08-26T04:53:34.950Z,21.18
2022-08-26T04:56:05.045Z,21.11
2022-08-26T04:58:32.661Z,21.10
2022-08-26T05:00:59.328Z,21.11
2022-08-26T05:03:30.462Z,21.09
2022-08-26T05:05:57.993Z,21.06
2022-08-26T05:08:25.034Z,21.06
2022-08-26T05:10:56.126Z,21.06
2022-08-26T05:13:25.368Z,21.08
2022-08-26T05:15:52.096Z,21.06
2022-08-26T05:18:22.823Z,21.05
2022-08-26T05:20:54.001Z,21.11
2022-08-26T05:23:23.741Z,21.14
2022-08-26T05:25:57.042Z,21.15
2022-08-26T05:28:27.180Z,21.13
2022-08-26T05:30:55.520Z,21.17
2022-08-26T05:33:23.168Z,21.18
2022-08-26T05:35:49.800Z,21.19
2022-08-26T05:38:19.659Z,21.21
2022-08-26T05:40:52.950Z,21.25
2022-08-26T05:43:20.492Z,21.20
2022-08-26T05:45:49.567Z,21.25
2022-08-26T05:48:19.051Z,21.28
2022-08-26T05:50:52.417Z,21.33
2022-08-26T05:53:21.166Z,21.38
2022-08-26T05:55:50.694Z,21.37
2022-08-26T05:58:21.087Z,21.43
2022-08-26T06:01:21.883Z,21.40
2022-08-26T06:03:57.251Z,21.41
2022-08-26T06:06:34.661Z,21.39
2022-08-26T06:09:04.600Z,21.39
2022-08-26T06:11:32.525Z,21.37
2022-08-26T06:14:03.924Z,21.38
2022-08-26T06:16:33.740Z,21.38
2022-08-26T06:19:03.462Z,21.25
2022-08-26T06:21:39.263Z,21.03
2022-08-26T06:24:27.419Z,20.97
2022-08-26T06:27:01.599Z,21.05
2022-08-26T06:29:30.635Z,21.05
2022-08-26T06:31:58.090Z,21.11
2022-08-26T06:34:29.722Z,20.96
2022-08-26T06:37:01.310Z,21.07
2022-08-26T06:39:30.585Z,21.14
2022-08-26T06:41:57.176Z,21.07
2022-08-26T06:44:24.476Z,21.04
2022-08-26T06:46:51.582Z,21.08
2022-08-26T06:49:18.420Z,21.18
2022-08-26T06:51:54.337Z,21.14
2022-08-26T06:54:21.159Z,21.09
2022-08-26T06:56:48.023Z,21.31
2022-08-26T06:59:15.494Z,21.39
2022-08-26T07:01:46.607Z,21.41
2022-08-26T07:04:15.749Z,21.48
2022-08-26T07:06:50.276Z,21.57
2022-08-26T07:09:25.209Z,21.56
2022-08-26T07:11:56.029Z,21.65
2022-08-26T07:14:22.971Z,21.97
2022-08-26T07:16:50.808Z,22.07
2022-08-26T07:19:27.574Z,22.37
2022-08-26T07:22:04.215Z,22.50
2022-08-26T07:24:33.677Z,22.70
2022-08-26T07:27:06.179Z,22.85
2022-08-26T07:29:33.410Z,22.93
2022-08-26T07:32:00.773Z,23.03
2022-08-26T07:34:28.179Z,23.08
2022-08-26T07:36:56.687Z,22.98
2022-08-26T07:39:24.639Z,22.94
2022-08-26T07:41:51.942Z,23.11
2022-08-26T07:44:19.307Z,23.18
2022-08-26T07:46:46.839Z,23.38
2022-08-26T07:49:25.035Z,23.62
2022-08-26T07:51:54.851Z,23.90
2022-08-26T07:54:24.616Z,23.99
2022-08-26T07:56:54.300Z,23.97
2022-08-26T07:59:23.806Z,24.33
2022-08-26T08:01:51.018Z,24.35
2022-08-26T08:04:20.981Z,24.35
2022-08-26T08:06:52.765Z,24.13
2022-08-26T08:09:19.500Z,24.16
2022-08-26T08:11:49.786Z,24.19
2022-08-26T08:14:18.306Z,24.19
2022-08-26T08:16:51.105Z,24.37
2022-08-26T08:19:21.899Z,24.30
2022-08-26T08:21:49.399Z,24.44
2022-08-26T08:24:16.337Z,24.64
2022-08-26T08:26:42.912Z,24.58
2022-08-26T08:29:09.570Z,24.70
2022-08-26T08:34:25.982Z,25.09
2022-08-26T08:36:53.660Z,24.79
2022-08-26T08:39:21.958Z,24.74
2022-08-26T08:41:56.514Z,25.03
2022-08-26T08:47:03.711Z,25.35
2022-08-26T08:49:32.986Z,25.04
2022-08-26T08:52:11.359Z,25.23
2022-08-26T08:54:38.108Z,25.07
2022-08-26T08:57:18.368Z,25.31
2022-08-26T08:59:58.489Z,25.44
2022-08-26T09:02:37.207Z,25.02
2022-08-26T09:05:35.726Z,25.39
2022-08-26T09:08:12.177Z,25.15
2022-08-26T09:10:45.552Z,25.41
2022-08-26T09:13:24.877Z,26.37
2022-08-26T09:16:06.674Z,26.67
2022-08-26T09:18:37.015Z,27.00
2022-08-26T09:21:08.330Z,27.47
2022-08-26T09:23:38.461Z,27.55
2022-08-26T09:26:18.667Z,27.91
2022-08-26T09:29:01.773Z,28.38
2022-08-26T09:31:32.342Z,28.57
2022-08-26T09:34:27.368Z,28.23
2022-08-26T09:36:59.654Z,28.03
2022-08-26T09:39:30.216Z,28.39
2022-08-26T09:42:08.453Z,28.47
2022-08-26T09:44:55.195Z,28.53
2022-08-26T09:47:45.789Z,28.45
2022-08-26T09:50:31.552Z,28.08
2022-08-26T09:53:03.933Z,27.78
2022-08-26T09:55:37.192Z,28.20
2022-08-26T09:58:08.680Z,28.51
2022-08-26T10:00:40.061Z,28.49
2022-08-26T10:03:11.755Z,28.52
2022-08-26T10:05:56.206Z,28.56
2022-08-26T10:08:33.352Z,28.75
2022-08-26T10:11:04.607Z,28.64
2022-08-26T10:13:31.153Z,28.59
2022-08-26T10:16:28.593Z,28.76
2022-08-26T10:19:10.438Z,28.92
2022-08-26T10:21:56.903Z,29.07
2022-08-26T10:24:30.927Z,29.75
2022-08-26T10:27:05.730Z,30.25
2022-08-26T10:29:42.992Z,30.52
2022-08-26T10:32:19.577Z,30.38
2022-08-26T10:34:46.193Z,29.60
2022-08-26T10:37:18.433Z,30.05
2022-08-26T10:40:07.475Z,29.78
2022-08-26T10:42:46.404Z,30.07
2022-08-26T10:45:25.196Z,30.27
2022-08-26T10:47:58.281Z,30.00
2022-08-26T10:50:31.876Z,30.35
2022-08-26T10:53:16.964Z,30.28
2022-08-26T10:55:57.021Z,30.17
2022-08-26T10:58:45.188Z,29.78
2022-08-26T11:01:41.285Z,30.97
2022-08-26T11:04:34.887Z,31.98
2022-08-26T11:07:31.698Z,31.16
2022-08-26T11:10:04.963Z,32.21
2022-08-26T11:12:34.918Z,32.45
2022-08-26T11:15:08.151Z,33.09
2022-08-26T11:17:44.507Z,33.37
2022-08-26T11:20:23.909Z,33.63
2022-08-26T11:22:51.828Z,33.22
2022-08-26T11:25:21.202Z,34.08
2022-08-26T11:27:47.624Z,34.03
2022-08-26T11:30:15.720Z,34.68
2022-08-26T11:32:51.486Z,35.01
2022-08-26T11:35:17.887Z,35.01
2022-08-26T11:37:48.067Z,35.02
2022-08-26T11:40:21.192Z,34.80
2022-08-26T11:43:02.365Z,34.29
2022-08-26T11:45:38.942Z,32.88
2022-08-26T11:48:17.916Z,34.12
2022-08-26T11:50:57.159Z,34.75
2022-08-26T11:53:25.590Z,34.97
2022-08-26T11:55:56.149Z,35.26
2022-08-26T11:58:24.652Z,35.38
2022-08-26T12:00:58.217Z,35.51
2022-08-26T12:03:45.575Z,36.01
2022-08-26T12:09:01.200Z,35.55
2022-08-26T12:11:31.482Z,35.41
2022-08-26T12:13:58.346Z,36.77
2022-08-26T12:16:28.229Z,35.99
2022-08-26T12:18:57.325Z,36.13
2022-08-26T12:21:34.645Z,36.61
2022-08-26T12:24:03.309Z,36.41
2022-08-26T12:26:31.815Z,36.85
2022-08-26T12:29:20.281Z,36.39
2022-08-26T12:32:17.486Z,35.69
2022-08-26T12:34:46.966Z,36.91
2022-08-26T12:37:15.267Z,35.98
2022-08-26T12:39:44.969Z,36.43
2022-08-26T12:42:17.300Z,36.70
2022-08-26T12:44:53.418Z,37.96
2022-08-26T12:47:51.681Z,38.24
2022-08-26T12:50:22.603Z,38.42
2022-08-26T12:53:10.199Z,37.71
2022-08-26T12:55:58.417Z,36.36
2022-08-26T12:58:31.789Z,37.47
2022-08-26T13:01:24.754Z,37.95
2022-08-26T13:03:52.060Z,38.87
2022-08-26T13:06:22.157Z,37.84
2022-08-26T13:08:51.331Z,38.47
2022-08-26T13:11:23.711Z,39.25
2022-08-26T13:13:53.449Z,39.24
2022-08-26T13:16:21.801Z,38.70
2022-08-26T13:18:52.958Z,39.51
2022-08-26T13:21:22.863Z,39.44
2022-08-26T13:23:50.466Z,39.82
2022-08-26T13:26:18.086Z,39.15
2022-08-26T13:28:44.849Z,40.02
2022-08-26T13:31:19.517Z,38.93
2022-08-26T13:33:46.664Z,39.45
2022-08-26T13:36:15.191Z,38.79
2022-08-26T13:38:42.209Z,38.90
2022-08-26T13:41:15.079Z,39.07
2022-08-26T13:43:43.303Z,39.47
2022-08-26T13:46:10.048Z,39.96
2022-08-26T13:48:36.807Z,39.40
2022-08-26T13:51:08.275Z,38.31
2022-08-26T13:53:35.871Z,37.78
2022-08-26T13:56:02.696Z,38.07
2022-08-26T13:58:29.640Z,37.83
2022-08-26T14:00:58.339Z,38.53
2022-08-26T14:03:24.972Z,38.71
2022-08-26T14:05:53.322Z,39.98
2022-08-26T14:08:21.012Z,39.89
2022-08-26T14:13:20.061Z,40.87
2022-08-26T14:15:46.965Z,39.47
2022-08-26T14:18:18.923Z,40.12
2022-08-26T14:20:49.614Z,40.42
2022-08-26T14:23:17.833Z,40.96
2022-08-26T14:25:44.340Z,39.45
2022-08-26T14:28:11.985Z,39.08
2022-08-26T14:30:44.213Z,39.33
2022-08-26T14:33:13.450Z,39.65
2022-08-26T14:35:40.421Z,39.96
2022-08-26T14:38:16.653Z,40.11
2022-08-26T14:40:44.868Z,39.55
2022-08-26T14:43:15.129Z,39.42
2022-08-26T14:45:44.066Z,39.66
2022-08-26T14:48:10.925Z,39.81
2022-08-26T14:50:38.192Z,39.87
2022-08-26T14:53:23.319Z,39.25
2022-08-26T14:55:50.405Z,39.47
2022-08-26T14:58:17.241Z,39.13
2022-08-26T15:00:43.756Z,39.22
2022-08-26T15:03:10.706Z,38.51
2022-08-26T15:05:38.653Z,38.20
2022-08-26T15:08:10.491Z,37.27
2022-08-26T15:10:38.087Z,38.20
2022-08-26T15:13:04.847Z,37.80
2022-08-26T15:15:31.274Z,36.09
2022-08-26T15:17:57.736Z,35.55
2022-08-26T15:20:25.020Z,35.23
2022-08-26T15:22:51.682Z,35.06
2022-08-26T15:25:20.178Z,35.17
2022-08-26T15:27:46.884Z,34.65
2022-08-26T15:30:13.735Z,34.77
2022-08-26T15:32:40.376Z,34.83
2022-08-26T15:35:09.257Z,34.72
2022-08-26T15:37:36.772Z,34.28
2022-08-26T15:40:04.725Z,35.64
2022-08-26T15:42:31.367Z,34.83
2022-08-26T15:44:58.048Z,35.38
2022-08-26T15:47:25.031Z,36.15
2022-08-26T15:49:51.629Z,36.47
2022-08-26T15:52:18.313Z,35.91
2022-08-26T15:54:44.953Z,35.92
2022-08-26T15:57:13.615Z,35.77
2022-08-26T15:59:42.344Z,35.48
2022-08-26T16:02:09.749Z,34.30
2022-08-26T16:04:36.636Z,34.12
2022-08-26T16:07:04.568Z,34.58
2022-08-26T16:09:31.264Z,34.28
2022-08-26T16:11:58.053Z,34.52
2022-08-26T16:14:25.530Z,34.27
2022-08-26T16:16:53.539Z,33.68
2022-08-26T16:19:20.956Z,34.00
2022-08-26T16:21:48.356Z,34.02
2022-08-26T16:24:14.864Z,33.00
2022-08-26T16:26:43.727Z,32.85
2022-08-26T16:29:12.441Z,32.92
2022-08-26T16:31:39.451Z,32.20
2022-08-26T16:34:08.140Z,32.54
2022-08-26T16:36:36.234Z,32.61
2022-08-26T16:39:05.068Z,32.71
2022-08-26T16:41:32.293Z,32.67
2022-08-26T16:43:59.546Z,32.27
2022-08-26T16:46:26.790Z,32.04
2022-08-26T16:48:55.213Z,31.34
2022-08-26T16:51:23.875Z,31.08
2022-08-26T16:53:51.678Z,30.98
2022-08-26T16:56:23.963Z,30.95
2022-08-26T16:59:00.143Z,30.59
2022-08-26T17:01:26.808Z,30.41
2022-08-26T17:03:54.106Z,30.32
2022-08-26T17:06:20.925Z,30.32
2022-08-26T17:08:47.759Z,30.06
2022-08-26T17:11:15.177Z,30.10
2022-08-26T17:13:41.829Z,29.75
2022-08-26T17:16:10.661Z,29.66
2022-08-26T17:18:37.755Z,29.64
2022-08-26T17:21:08.121Z,29.44
2022-08-26T17:23:35.813Z,29.49
2022-08-26T17:26:03.256Z,28.94
2022-08-26T17:28:29.836Z,28.95
2022-08-26T17:30:58.305Z,28.87
2022-08-26T17:33:25.957Z,28.79
2022-08-26T17:35:53.618Z,28.87
2022-08-26T17:38:21.347Z,28.86
2022-08-26T17:40:48.401Z,28.42
2022-08-26T17:43:15.230Z,28.27
2022-08-26T17:45:41.693Z,28.20
2022-08-26T17:48:08.580Z,28.18
2022-08-26T17:50:35.602Z,28.09
2022-08-26T17:53:02.140Z,28.15
2022-08-26T17:55:29.057Z,27.89
2022-08-26T17:57:55.603Z,27.87
2022-08-26T18:00:26.414Z,27.87
2022-08-26T18:02:54.813Z,27.84
2022-08-26T18:05:22.219Z,27.47
2022-08-26T18:07:48.785Z,27.89
2022-08-26T18:10:17.674Z,27.49
2022-08-26T18:12:45.125Z,27.43
2022-08-26T18:15:15.686Z,27.39
2022-08-26T18:17:44.597Z,27.27
2022-08-26T18:20:15.292Z,27.54
2022-08-26T18:22:42.964Z,27.39
2022-08-26T18:25:10.120Z,27.35
2022-08-26T18:27:37.539Z,27.07
2022-08-26T18:30:10.499Z,26.81
2022-08-26T18:32:39.002Z,26.76
2022-08-26T18:35:06.115Z,26.61
2022-08-26T18:37:34.203Z,26.45
2022-08-26T18:40:01.009Z,26.62
2022-08-26T18:42:28.351Z,26.44
2022-08-26T18:44:55.318Z,26.49
2022-08-26T18:47:22.871Z,26.51
2022-08-26T18:49:49.652Z,26.32
2022-08-26T18:52:16.223Z,26.49
2022-08-26T18:54:43.338Z,26.41
2022-08-26T18:57:10.339Z,26.12
2022-08-26T18:59:37.813Z,26.17
2022-08-26T19:02:05.264Z,25.87
2022-08-26T19:04:32.198Z,26.18
2022-08-26T19:06:58.953Z,25.91
2022-08-26T19:09:28.367Z,26.07
2022-08-26T19:14:28.400Z,25.60
2022-08-26T19:16:55.600Z,25.85
2022-08-26T19:19:25.555Z,25.88
2022-08-26T19:21:54.912Z,25.73
2022-08-26T19:24:23.045Z,25.94
2022-08-26T19:26:57.854Z,25.55
2022-08-26T19:29:27.559Z,25.68
2022-08-26T19:31:54.525Z,25.72
2022-08-26T19:34:21.119Z,25.91
2022-08-26T19:36:48.124Z,25.51
2022-08-26T19:39:14.579Z,25.83
2022-08-26T19:41:41.532Z,25.72
2022-08-26T19:44:12.984Z,25.41
2022-08-26T19:46:40.174Z,25.55
2022-08-26T19:49:06.837Z,25.54
2022-08-26T19:51:36.512Z,25.55
2022-08-26T19:54:04.216Z,25.24
2022-08-26T19:56:31.609Z,25.20
2022-08-26T19:58:59.078Z,25.32
2022-08-26T20:01:30.852Z,25.35
2022-08-26T20:03:57.650Z,24.79
2022-08-26T20:06:24.393Z,24.74
2022-08-26T20:08:52.020Z,25.05
2022-08-26T20:11:20.689Z,24.92
2022-08-26T20:13:48.143Z,24.81
2022-08-26T20:16:16.574Z,24.89
2022-08-26T20:19:03.317Z,24.98
2022-08-26T20:21:34.024Z,24.81
2022-08-26T20:24:04.998Z,24.81
2022-08-26T20:26:34.538Z,24.81
2022-08-26T20:29:03.579Z,24.78
2022-08-26T20:31:31.306Z,24.73
2022-08-26T20:33:58.032Z,24.48
2022-08-26T20:36:27.335Z,24.57
2022-08-26T20:38:55.328Z,24.68
2022-08-26T20:41:25.249Z,24.60
2022-08-26T20:43:52.867Z,24.49
2022-08-26T20:46:24.105Z,24.33
2022-08-26T20:48:52.611Z,24.52
2022-08-26T20:51:20.351Z,24.51
2022-08-26T20:53:50.645Z,24.46
2022-08-26T20:56:22.108Z,24.47
2022-08-26T20:58:49.963Z,24.48
2022-08-26T21:01:20.142Z,24.38
2022-08-26T21:03:48.023Z,24.31
2022-08-26T21:06:14.784Z,24.24
2022-08-26T21:08:43.196Z,24.24
2022-08-26T21:11:11.517Z,24.11
2022-08-26T21:14:01.273Z,24.14
2022-08-26T21:16:24.847Z,24.06
2022-08-26T21:18:51.646Z,23.78
2022-08-26T21:21:18.534Z,23.75
2022-08-26T21:23:52.165Z,23.82
2022-08-26T21:26:18.896Z,23.75
2022-08-26T21:28:46.309Z,23.69
2022-08-26T21:31:15.901Z,23.61
2022-08-26T21:33:43.138Z,23.58
2022-08-26T21:36:11.524Z,23.59
2022-08-26T21:38:38.545Z,23.50
2022-08-26T21:41:09.357Z,23.46
2022-08-26T21:43:36.607Z,23.47
2022-08-26T21:46:14.310Z,23.47
2022-08-26T21:48:56.115Z,23.40
2022-08-26T21:51:25.273Z,23.51
2022-08-26T21:53:54.651Z,23.47
2022-08-26T21:56:26.109Z,23.41
2022-08-26T21:58:54.986Z,23.43
2022-08-26T22:01:24.671Z,23.39
2022-08-26T22:03:54.627Z,23.29
2022-08-26T22:06:26.961Z,23.29
2022-08-26T22:08:54.569Z,23.30
2022-08-26T22:11:21.651Z,23.24
2022-08-26T22:13:49.313Z,23.27
2022-08-26T22:16:16.915Z,23.34
2022-08-26T22:18:45.136Z,23.22
2022-08-26T22:21:15.419Z,23.17
2022-08-26T22:23:41.975Z,23.18
2022-08-26T22:26:10.559Z,23.15
2022-08-26T22:28:37.225Z,23.23
2022-08-26T22:31:03.894Z,23.21
2022-08-26T22:33:30.689Z,23.19
2022-08-26T22:35:57.359Z,23.16
2022-08-26T22:38:24.007Z,23.16
2022-08-26T22:40:56.468Z,23.16
2022-08-26T22:43:28.609Z,23.15
2022-08-26T22:45:57.104Z,23.19
2022-08-26T22:48:26.372Z,23.18
2022-08-26T22:50:59.604Z,23.21
2022-08-26T22:53:27.305Z,23.12
2022-08-26T22:55:54.356Z,23.10
2022-08-26T22:58:21.329Z,23.18
2022-08-26T23:00:57.846Z,23.14
2022-08-26T23:03:27.021Z,23.15
2022-08-26T23:05:55.403Z,23.07
2022-08-26T23:08:23.307Z,23.12
2022-08-26T23:10:50.663Z,23.17
2022-08-26T23:13:18.705Z,23.13
2022-08-26T23:15:45.735Z,23.07
2022-08-26T23:18:14.197Z,23.02
2022-08-26T23:20:40.877Z,23.00
2022-08-26T23:23:08.131Z,22.96
2022-08-26T23:25:35.237Z,22.98
2022-08-26T23:28:02.440Z,23.01
2022-08-26T23:30:32.046Z,22.99
2022-08-26T23:32:58.931Z,22.92
2022-08-26T23:35:27.083Z,22.85
2022-08-26T23:37:53.625Z,22.88
2022-08-26T23:40:28.074Z,22.86
2022-08-26T23:42:56.743Z,22.72
2022-08-26T23:45:24.514Z,22.83
2022-08-26T23:47:52.185Z,22.78
2022-08-26T23:50:22.246Z,22.74
2022-08-26T23:53:08.912Z,22.66
2022-08-26T23:55:38.000Z,22.74
2022-08-26T23:58:05.836Z,22.66
